SBBR/BSB METAR and TAF weather

Enter ICAO airport designator
Station Type Date Time Source
SBBR METAR 2019/06/17 14:00 UTC NOAA

SBBR 171400Z 08013KT 9999 FEW030 22/13 Q1026


Station Type Date Time Source
SBBR Decoded METAR 2019/06/17 14:00 UTC NOAA

Brasilia Aeroporto , Brazil (SBBR) 15-52S 047-56W 1061M
Jun 17, 2019 - 10:00 AM EDT / 2019.06.17 1400 UTC
Wind: from the E (080 degrees) at 15 MPH (13 KT):0
Visibility: greater than 7 mile(s):0
Sky conditions: mostly clear
Temperature: 71 F (22 C)
Dew Point: 55 F (13 C)
Relative Humidity: 56%
Pressure (altimeter): 30.30 in. Hg (1026 hPa)
ob: SBBR 171400Z 08013KT 9999 FEW030 22/13 Q1026
cycle: 14

Station Type Date Time Source
SBBR TAF 2019/06/17 12:52 UTC NOAA

TAF SBBR 171000Z 1712/1812 09008KT CAVOK TX25/1717Z TN16/1807Z
BECMG 1714/1716 06010KT 9999 SCT040
BECMG 1718/1720 BKN040
BECMG 1720/1722 09005KT F EW040
BECMG 1800/1802 00000KT CAVOK
BECMG 1810/1812 06008KT
RMK PFF

Example: see airport list